createdAt,value
2023-11-24T00:00:33.000Z,5.2
2023-11-24T00:04:06.000Z,4.5
2023-11-24T00:06:51.000Z,4.7
2023-11-24T00:10:24.000Z,5.4
2023-11-24T00:13:57.000Z,5.6
2023-11-24T00:17:29.000Z,3.1
2023-11-24T00:21:02.000Z,4.5
2023-11-24T00:24:35.000Z,2
2023-11-24T00:28:07.000Z,3.3
2023-11-24T00:31:40.000Z,5.4
2023-11-24T00:35:13.000Z,5.4
2023-11-24T00:38:46.000Z,3
2023-11-24T00:42:19.000Z,5.4
2023-11-24T00:45:04.000Z,3.1
2023-11-24T00:48:37.000Z,3.9
2023-11-24T00:52:10.000Z,5.6
2023-11-24T00:55:42.000Z,4.2
2023-11-24T00:59:15.000Z,5.6
2023-11-24T01:02:48.000Z,5.9
2023-11-24T01:06:21.000Z,1.4
2023-11-24T01:09:53.000Z,2.5
2023-11-24T01:13:26.000Z,3.7
2023-11-24T01:16:59.000Z,1.7
2023-11-24T01:20:32.000Z,2.5
2023-11-24T01:23:17.000Z,7.4
2023-11-24T01:26:50.000Z,3.7
2023-11-24T01:30:22.000Z,3.5
2023-11-24T01:33:56.000Z,7.2
2023-11-24T01:37:29.000Z,3.2
2023-11-24T01:41:02.000Z,5.3
2023-11-24T01:44:34.000Z,2.5
2023-11-24T01:48:07.000Z,2.5
2023-11-24T01:51:40.000Z,5.8
2023-11-24T01:55:13.000Z,5.1
2023-11-24T01:58:46.000Z,3.7
2023-11-24T02:01:31.000Z,5
2023-11-24T02:05:05.000Z,6
2023-11-24T02:08:37.000Z,5.5
2023-11-24T02:12:10.000Z,5.8
2023-11-24T02:15:43.000Z,4.9
2023-11-24T02:19:16.000Z,6
2023-11-24T02:22:48.000Z,5.4
2023-11-24T02:26:21.000Z,5.4
2023-11-24T02:29:55.000Z,8.2
2023-11-24T02:33:29.000Z,8.3
2023-11-24T02:37:02.000Z,7.9
2023-11-24T02:39:47.000Z,5.8
2023-11-24T02:43:20.000Z,9.6
2023-11-24T02:46:52.000Z,7.8
2023-11-24T02:50:25.000Z,8
2023-11-24T02:53:58.000Z,13.1
2023-11-24T02:57:31.000Z,12.6
2023-11-24T03:01:04.000Z,6.9
2023-11-24T03:04:38.000Z,9.4
2023-11-24T03:08:11.000Z,6.4
2023-11-24T03:11:43.000Z,10
2023-11-24T03:15:16.000Z,5.7
2023-11-24T03:18:02.000Z,7.5
2023-11-24T03:21:35.000Z,11.8
2023-11-24T03:25:07.000Z,12.9
2023-11-24T03:28:40.000Z,9.4
2023-11-24T03:32:13.000Z,5.6
2023-11-24T03:35:46.000Z,8.5
2023-11-24T03:39:18.000Z,6.9
2023-11-24T03:42:51.000Z,6.7
2023-11-24T03:46:24.000Z,8
2023-11-24T03:49:56.000Z,8.8
2023-11-24T03:53:29.000Z,10.1
2023-11-24T03:56:14.000Z,8.3
2023-11-24T03:59:47.000Z,10.2
2023-11-24T04:03:20.000Z,9.8
2023-11-24T04:06:52.000Z,11.4
2023-11-24T04:10:25.000Z,9
2023-11-24T04:13:58.000Z,9
2023-11-24T04:17:31.000Z,11.5
2023-11-24T04:21:04.000Z,9.2
2023-11-24T04:24:36.000Z,7.5
2023-11-24T04:28:09.000Z,12.8
2023-11-24T04:31:42.000Z,8.7
2023-11-24T04:34:27.000Z,9.1
2023-11-24T04:38:00.000Z,11.1
2023-11-24T04:41:32.000Z,7.9
2023-11-24T04:45:05.000Z,7.5
2023-11-24T04:48:39.000Z,10.6
2023-11-24T04:52:12.000Z,12
2023-11-24T04:55:45.000Z,10.5
2023-11-24T04:59:17.000Z,10
2023-11-24T05:02:50.000Z,16.4
2023-11-24T05:06:24.000Z,8.2
2023-11-24T05:09:57.000Z,9.4
2023-11-24T05:12:42.000Z,11.7
2023-11-24T05:16:14.000Z,8
2023-11-24T05:19:47.000Z,15.1
2023-11-24T05:23:20.000Z,12.2
2023-11-24T05:26:53.000Z,11.2
2023-11-24T05:30:25.000Z,12.9
2023-11-24T05:33:59.000Z,13.8
2023-11-24T05:37:34.000Z,9.1
2023-11-24T05:41:06.000Z,9.1
2023-11-24T05:44:39.000Z,12.5
2023-11-24T05:48:12.000Z,12.8
2023-11-24T05:50:58.000Z,13.4
2023-11-24T05:54:30.000Z,10.1
2023-11-24T05:58:03.000Z,11.5
2023-11-24T06:01:36.000Z,11.5
2023-11-24T06:05:09.000Z,12.3
2023-11-24T06:08:42.000Z,9.1
2023-11-24T06:12:15.000Z,12.8
2023-11-24T06:15:48.000Z,10.7
2023-11-24T06:19:21.000Z,11.3
2023-11-24T06:22:54.000Z,9.9
2023-11-24T06:26:27.000Z,11
2023-11-24T06:29:12.000Z,8.4
2023-11-24T06:32:45.000Z,8.8
2023-11-24T06:36:17.000Z,13.5
2023-11-24T06:39:50.000Z,11.2
2023-11-24T06:43:23.000Z,13.9
2023-11-24T06:46:56.000Z,10.9
2023-11-24T06:50:28.000Z,13.1
2023-11-24T06:54:02.000Z,8.7
2023-11-24T06:57:34.000Z,11.3
2023-11-24T07:01:07.000Z,11.3
2023-11-24T07:04:40.000Z,10.9
2023-11-24T07:07:26.000Z,10.4
2023-11-24T07:10:59.000Z,10.3
2023-11-24T07:14:31.000Z,9.1
2023-11-24T07:18:04.000Z,8.1
2023-11-24T07:21:37.000Z,8.7
2023-11-24T07:25:09.000Z,9.9
2023-11-24T07:28:42.000Z,8.1
2023-11-24T07:32:15.000Z,9
2023-11-24T07:35:48.000Z,9.5
2023-11-24T07:39:20.000Z,7.5
2023-11-24T07:42:53.000Z,7.7
2023-11-24T07:45:38.000Z,7.7
2023-11-24T07:49:11.000Z,6.1
2023-11-24T07:52:43.000Z,7.1
2023-11-24T07:56:16.000Z,5.4
2023-11-24T07:59:49.000Z,5.5
2023-11-24T08:03:22.000Z,8
2023-11-24T08:06:56.000Z,7.4
2023-11-24T08:10:29.000Z,6.9
2023-11-24T08:14:01.000Z,4.9
2023-11-24T08:17:34.000Z,5.9
2023-11-24T08:21:07.000Z,6.7
2023-11-24T08:23:52.000Z,5.7
2023-11-24T08:27:24.000Z,5.7
2023-11-24T08:30:57.000Z,4.2
2023-11-24T08:34:30.000Z,4.1
2023-11-24T08:38:03.000Z,4.5
2023-11-24T08:41:35.000Z,5.2
2023-11-24T08:45:08.000Z,5.6
2023-11-24T08:48:41.000Z,5.9
2023-11-24T08:52:14.000Z,4.7
2023-11-24T08:55:47.000Z,7
2023-11-24T08:59:22.000Z,5.7
2023-11-24T09:02:08.000Z,5.2
2023-11-24T09:05:41.000Z,8.7
2023-11-24T09:09:13.000Z,4.1
2023-11-24T09:12:46.000Z,6.3
2023-11-24T09:16:19.000Z,6.7
2023-11-24T09:19:52.000Z,9.3
2023-11-24T09:23:24.000Z,8.4
2023-11-24T09:26:57.000Z,6.8
2023-11-24T09:30:29.000Z,6.7
2023-11-24T09:34:02.000Z,6.3
2023-11-24T09:37:35.000Z,9.9
2023-11-24T09:40:20.000Z,8
2023-11-24T09:43:53.000Z,7.9
2023-11-24T09:47:26.000Z,8.8
2023-11-24T09:50:59.000Z,8.5
2023-11-24T09:54:31.000Z,5.6
2023-11-24T09:58:04.000Z,8.6
2023-11-24T10:01:37.000Z,6
2023-11-24T10:05:10.000Z,5.8
2023-11-24T10:08:42.000Z,4.9
2023-11-24T10:12:15.000Z,6.9
2023-11-24T10:15:50.000Z,6.3
2023-11-24T10:18:35.000Z,5.7
2023-11-24T10:22:08.000Z,11.9
2023-11-24T10:25:41.000Z,7.2
2023-11-24T10:29:13.000Z,8.1
2023-11-24T10:32:46.000Z,7.1
2023-11-24T10:36:19.000Z,6
2023-11-24T10:39:52.000Z,8.7
2023-11-24T10:43:25.000Z,4.3
2023-11-24T10:46:57.000Z,8.4
2023-11-24T10:50:30.000Z,5.9
2023-11-24T10:54:03.000Z,5.7
2023-11-24T10:56:48.000Z,5.2
2023-11-24T11:00:21.000Z,6.3
2023-11-24T11:03:54.000Z,7.6
2023-11-24T11:07:27.000Z,5.2
2023-11-24T11:11:01.000Z,7.5
2023-11-24T11:14:34.000Z,8.3
2023-11-24T11:18:07.000Z,3.6
2023-11-24T11:21:41.000Z,5.9
2023-11-24T11:25:14.000Z,5.6
2023-11-24T11:28:47.000Z,3.4
2023-11-24T11:32:20.000Z,5.8
2023-11-24T11:35:05.000Z,3.2
2023-11-24T11:38:38.000Z,3
2023-11-24T11:42:11.000Z,2.5
2023-11-24T11:45:43.000Z,4
2023-11-24T11:49:18.000Z,4
2023-11-24T11:52:50.000Z,3
2023-11-24T11:56:23.000Z,1.1
2023-11-24T11:59:57.000Z,2.5
2023-11-24T12:03:29.000Z,1.9
2023-11-24T12:07:03.000Z,1.1
2023-11-24T12:10:36.000Z,0.3
2023-11-24T12:13:21.000Z,3.3
2023-11-24T12:16:54.000Z,1.2
2023-11-24T12:20:27.000Z,0.9
2023-11-24T12:24:00.000Z,0.1
2023-11-24T12:27:42.000Z,0.7
2023-11-24T12:31:14.000Z,1.1
2023-11-24T12:34:48.000Z,1
2023-11-24T12:38:21.000Z,0.8
2023-11-24T12:41:54.000Z,0.4
2023-11-24T12:45:26.000Z,0.3
2023-11-24T12:48:59.000Z,1.2
2023-11-24T12:51:44.000Z,2.6
2023-11-24T12:55:17.000Z,1
2023-11-24T12:58:50.000Z,2.5
2023-11-24T13:02:23.000Z,2.7
2023-11-24T13:05:56.000Z,4.9
2023-11-24T13:09:29.000Z,3.3
2023-11-24T13:13:02.000Z,1.6
2023-11-24T13:16:35.000Z,3.1
2023-11-24T13:20:07.000Z,2.9
2023-11-24T13:23:40.000Z,3.8
2023-11-24T13:27:13.000Z,2.8
2023-11-24T13:29:58.000Z,1.6
2023-11-24T13:33:34.000Z,1.8
2023-11-24T13:37:07.000Z,3.1
2023-11-24T13:40:41.000Z,1.4
2023-11-24T13:44:14.000Z,0.9
2023-11-24T13:47:46.000Z,1
2023-11-24T13:51:19.000Z,2.8
2023-11-24T13:54:52.000Z,1.6
2023-11-24T13:58:25.000Z,4
2023-11-24T14:01:58.000Z,2.6
2023-11-24T14:05:31.000Z,2.7
2023-11-24T14:08:16.000Z,6.5
2023-11-24T14:11:49.000Z,6.3
2023-11-24T14:15:21.000Z,2.3
2023-11-24T14:18:54.000Z,4.8
2023-11-24T14:22:27.000Z,5.4
2023-11-24T14:26:00.000Z,3
2023-11-24T14:29:32.000Z,7.9
2023-11-24T14:33:05.000Z,6.5
2023-11-24T14:36:38.000Z,7.7
2023-11-24T14:40:11.000Z,10.8
2023-11-24T14:43:47.000Z,6.7
2023-11-24T14:46:32.000Z,8.2
2023-11-24T14:50:05.000Z,10.1
2023-11-24T14:53:38.000Z,8.7
2023-11-24T14:57:11.000Z,6.3
2023-11-24T15:00:44.000Z,11
2023-11-24T15:04:17.000Z,12
2023-11-24T15:07:49.000Z,9.1
2023-11-24T15:11:22.000Z,8.6
2023-11-24T15:14:55.000Z,8.6
2023-11-24T15:18:29.000Z,11.1
2023-11-24T15:22:02.000Z,10.5
2023-11-24T15:24:47.000Z,12.5
2023-11-24T15:28:20.000Z,12.2
2023-11-24T15:31:52.000Z,11.1
2023-11-24T15:35:26.000Z,11.2
2023-11-24T15:38:58.000Z,11.2
2023-11-24T15:42:31.000Z,12.2
2023-11-24T15:46:04.000Z,10.2
2023-11-24T15:49:38.000Z,10.6
2023-11-24T15:53:10.000Z,5.4
2023-11-24T15:56:43.000Z,4
2023-11-24T16:00:16.000Z,2
2023-11-24T16:03:01.000Z,6.5
2023-11-24T16:06:35.000Z,5.9
2023-11-24T16:10:07.000Z,8.7
2023-11-24T16:13:41.000Z,10.3
2023-11-24T16:17:13.000Z,12.2
2023-11-24T16:20:46.000Z,12.4
2023-11-24T16:24:19.000Z,39.3
2023-11-24T16:27:51.000Z,3
2023-11-24T16:31:24.000Z,7.4
2023-11-24T16:34:57.000Z,14.8
2023-11-24T16:38:30.000Z,6.2
2023-11-24T16:41:15.000Z,5.6
2023-11-24T16:44:48.000Z,16.1
2023-11-24T16:48:21.000Z,3.9
2023-11-24T16:51:53.000Z,6.7
2023-11-24T16:55:26.000Z,4.9
2023-11-24T16:58:59.000Z,1.8
2023-11-24T17:02:32.000Z,4.6
2023-11-24T17:06:05.000Z,6.8
2023-11-24T17:09:37.000Z,6.4
2023-11-24T17:13:10.000Z,7.1
2023-11-24T17:16:43.000Z,5.9
2023-11-24T17:19:28.000Z,5.1
2023-11-24T17:23:01.000Z,7.4
2023-11-24T17:26:34.000Z,5.3
2023-11-24T17:30:07.000Z,7.5
2023-11-24T17:33:40.000Z,6.1
2023-11-24T17:37:12.000Z,7.7
2023-11-24T17:40:45.000Z,6.2
2023-11-24T17:44:18.000Z,8.5
2023-11-24T17:47:50.000Z,10.8
2023-11-24T17:51:23.000Z,7.1
2023-11-24T17:54:56.000Z,9.2
2023-11-24T17:57:42.000Z,13.9
2023-11-24T18:01:15.000Z,13.2
2023-11-24T18:04:48.000Z,10.3
2023-11-24T18:08:21.000Z,9.2
2023-11-24T18:11:53.000Z,10
2023-11-24T18:15:26.000Z,9.7
2023-11-24T18:18:59.000Z,6.8
2023-11-24T18:22:32.000Z,9
2023-11-24T18:26:04.000Z,9.1
2023-11-24T18:29:37.000Z,14.4
2023-11-24T18:33:10.000Z,11.4
2023-11-24T18:35:55.000Z,11.4
2023-11-24T18:39:28.000Z,10.1
2023-11-24T18:43:00.000Z,8.8
2023-11-24T18:46:33.000Z,8
2023-11-24T18:50:06.000Z,11.1
2023-11-24T18:53:39.000Z,8.8
2023-11-24T18:57:11.000Z,11.8
2023-11-24T19:00:44.000Z,9.1
2023-11-24T19:04:17.000Z,7.8
2023-11-24T19:07:50.000Z,8.3
2023-11-24T19:11:22.000Z,8.3
2023-11-24T19:14:07.000Z,7.7
2023-11-24T19:17:40.000Z,7.6
2023-11-24T19:21:13.000Z,9.7
2023-11-24T19:24:50.000Z,6.9
2023-11-24T19:28:22.000Z,9.6
2023-11-24T19:31:56.000Z,7.7
2023-11-24T19:35:29.000Z,9.2
2023-11-24T19:39:02.000Z,7.3
2023-11-24T19:42:35.000Z,8.3
2023-11-24T19:46:08.000Z,10.9
2023-11-24T19:49:40.000Z,6.9
2023-11-24T19:52:26.000Z,9.5
2023-11-24T19:55:59.000Z,8.7
2023-11-24T19:59:32.000Z,8.4
2023-11-24T20:03:05.000Z,7.3
2023-11-24T20:06:38.000Z,10.2
2023-11-24T20:10:11.000Z,18.1
2023-11-24T20:13:43.000Z,21.1
2023-11-24T20:17:16.000Z,23.1
2023-11-24T20:20:49.000Z,10.5
2023-11-24T20:24:22.000Z,8.6
2023-11-24T20:27:55.000Z,9.8
2023-11-24T20:30:40.000Z,9.8
2023-11-24T20:34:13.000Z,11.8
2023-11-24T20:37:46.000Z,7.6
2023-11-24T20:41:18.000Z,7.1
2023-11-24T20:44:51.000Z,8.8
2023-11-24T20:48:24.000Z,7.6
2023-11-24T20:51:57.000Z,13.7
2023-11-24T20:55:29.000Z,9.7
2023-11-24T20:59:02.000Z,6.9
2023-11-24T21:02:35.000Z,7.6
2023-11-24T21:06:08.000Z,6.8
2023-11-24T21:08:53.000Z,6.6
2023-11-24T21:12:26.000Z,5.8
2023-11-24T21:15:59.000Z,7.2
2023-11-24T21:19:32.000Z,5.9
2023-11-24T21:23:04.000Z,5.1
2023-11-24T21:26:37.000Z,3.3
2023-11-24T21:30:10.000Z,2.7
2023-11-24T21:33:43.000Z,3
2023-11-24T21:37:17.000Z,3.9
2023-11-24T21:40:50.000Z,2.9
2023-11-24T21:44:23.000Z,2.4
2023-11-24T21:47:08.000Z,3.7
2023-11-24T21:50:41.000Z,3.9
2023-11-24T21:54:14.000Z,3.8
2023-11-24T21:57:46.000Z,3.7
2023-11-24T22:01:19.000Z,4.3
2023-11-24T22:04:52.000Z,4.3
2023-11-24T22:08:25.000Z,2.7
2023-11-24T22:11:58.000Z,3.1
2023-11-24T22:15:31.000Z,2.9
2023-11-24T22:19:04.000Z,2.2
2023-11-24T22:22:37.000Z,2.8
2023-11-24T22:25:22.000Z,2.3
2023-11-24T22:28:55.000Z,3.5
2023-11-24T22:32:27.000Z,2.5
2023-11-24T22:36:00.000Z,3.5
2023-11-24T22:39:33.000Z,4.5
2023-11-24T22:43:06.000Z,1.7
2023-11-24T22:46:38.000Z,2.8
2023-11-24T22:50:11.000Z,1.9
2023-11-24T22:53:44.000Z,2.6
2023-11-24T22:57:16.000Z,3.3
2023-11-24T23:00:49.000Z,2.4
2023-11-24T23:03:34.000Z,2.7
2023-11-24T23:07:07.000Z,8.4
2023-11-24T23:10:40.000Z,7.1
2023-11-24T23:14:12.000Z,3.2
2023-11-24T23:17:45.000Z,4.7
2023-11-24T23:21:19.000Z,4.3
2023-11-24T23:24:52.000Z,4.4
2023-11-24T23:28:25.000Z,2
2023-11-24T23:31:58.000Z,3.8
2023-11-24T23:35:31.000Z,3.6
2023-11-24T23:39:04.000Z,3.6
2023-11-24T23:41:49.000Z,4.7
2023-11-24T23:45:22.000Z,4.6
2023-11-24T23:48:55.000Z,3.9
2023-11-24T23:52:30.000Z,6.1
2023-11-24T23:56:02.000Z,5.3
2023-11-24T23:59:35.000Z,4.7
